Time;durP1;ratioP1;P1;durP2;ratioP2;P2;SDS_P1;SDS_P2;PMS_P1;PMS_P2;Temp;Humidity;BMP_temperature;BMP_pressure;BME280_temperature;BME280_humidity;BME280_pressure;Samples;Min_cycle;Max_cycle;Signal;HPM_P1;HPM_P2
2021/08/31 00:01:33;;;;;;;35.38;21.38;;;14.10;99.90;;;;;;5013484;28;20501;-60
2021/08/31 00:03:59;;;;;;;30.98;20.67;;;14.10;99.90;;;;;;5024887;23;20050;-65
2021/08/31 00:06:24;;;;;;;33.17;20.70;;;14.10;99.90;;;;;;5005579;28;20095;-62
2021/08/31 00:08:50;;;;;;;33.55;20.48;;;14.10;99.90;;;;;;5011479;28;20018;-63
2021/08/31 00:11:15;;;;;;;36.85;23.40;;;14.10;99.90;;;;;;5013212;28;20397;-65
2021/08/31 00:13:41;;;;;;;38.53;22.83;;;14.10;99.90;;;;;;5015569;28;20513;-63
2021/08/31 00:16:06;;;;;;;40.40;22.33;;;14.10;99.90;;;;;;5013792;28;20041;-63
2021/08/31 00:18:32;;;;;;;35.90;20.70;;;14.00;99.90;;;;;;5010279;28;20458;-64
2021/08/31 00:20:57;;;;;;;36.30;22.35;;;14.00;99.90;;;;;;5010633;28;20584;-66
2021/08/31 00:23:23;;;;;;;39.63;23.25;;;14.00;99.90;;;;;;5006551;28;20025;-64
2021/08/31 00:25:52;;;;;;;41.45;23.48;;;14.10;99.90;;;;;;5007867;28;20021;-64
2021/08/31 00:28:19;;;;;;;35.67;22.75;;;14.10;99.90;;;;;;5009775;28;20026;-61
2021/08/31 00:30:45;;;;;;;37.38;23.95;;;14.10;99.90;;;;;;5007769;28;20485;-64
2021/08/31 00:33:10;;;;;;;39.80;23.80;;;14.10;99.90;;;;;;5010589;28;20037;-66
2021/08/31 00:35:36;;;;;;;41.42;25.13;;;14.00;99.90;;;;;;5007253;28;20033;-64
2021/08/31 00:38:01;;;;;;;39.90;24.80;;;14.00;99.90;;;;;;5010644;28;20041;-65
2021/08/31 00:40:27;;;;;;;43.67;25.75;;;14.00;99.90;;;;;;5018473;28;20037;-64
2021/08/31 00:42:53;;;;;;;40.90;23.98;;;14.10;99.90;;;;;;5008757;28;20040;-65
2021/08/31 00:45:19;;;;;;;46.05;24.75;;;14.10;99.90;;;;;;5008659;28;20079;-64
2021/08/31 00:47:44;;;;;;;44.15;25.38;;;14.00;99.90;;;;;;5015741;28;20038;-64
2021/08/31 00:50:11;;;;;;;50.28;27.67;;;13.90;99.90;;;;;;5008128;28;20084;-63
2021/08/31 00:52:39;;;;;;;48.60;25.92;;;13.80;99.90;;;;;;4992946;28;20049;-65
2021/08/31 00:55:07;;;;;;;40.25;23.60;;;13.80;99.90;;;;;;5007968;28;20028;-63
2021/08/31 00:57:32;;;;;;;33.17;21.10;;;13.80;99.90;;;;;;5009798;28;20060;-63
2021/08/31 00:59:58;;;;;;;41.85;25.60;;;13.80;99.90;;;;;;5015776;28;20030;-64
2021/08/31 01:02:25;;;;;;;54.35;29.98;;;13.80;99.90;;;;;;5010054;28;20026;-65
2021/08/31 01:04:50;;;;;;;45.70;27.23;;;13.80;99.90;;;;;;5007562;28;20582;-64
2021/08/31 01:07:16;;;;;;;51.22;29.42;;;13.90;99.90;;;;;;5007416;28;20022;-65
2021/08/31 01:09:43;;;;;;;53.53;30.65;;;13.90;99.90;;;;;;4991169;28;20068;-62
2021/08/31 01:12:09;;;;;;;57.13;31.08;;;14.00;99.90;;;;;;5011764;28;20088;-65
2021/08/31 01:14:34;;;;;;;47.45;30.42;;;14.00;99.90;;;;;;5017851;28;20116;-66
2021/08/31 01:17:00;;;;;;;44.47;27.80;;;14.00;99.90;;;;;;5005217;28;20528;-63
2021/08/31 01:19:30;;;;;;;40.70;25.38;;;14.00;99.90;;;;;;4976002;28;20434;-63
2021/08/31 01:22:02;;;;;;;48.60;26.88;;;13.90;99.90;;;;;;5008022;28;20568;-65
2021/08/31 01:24:28;;;;;;;47.40;27.35;;;13.70;99.90;;;;;;5004937;28;20246;-62
2021/08/31 01:26:55;;;;;;;52.22;28.10;;;13.60;99.90;;;;;;5004589;28;20112;-64
2021/08/31 01:29:21;;;;;;;52.25;30.17;;;13.60;99.90;;;;;;5009324;28;20038;-62
2021/08/31 01:31:46;;;;;;;48.55;27.42;;;13.50;99.90;;;;;;5008427;28;20048;-64
2021/08/31 01:34:13;;;;;;;54.20;29.20;;;13.50;99.90;;;;;;4992905;28;20034;-64
2021/08/31 01:36:38;;;;;;;53.95;30.65;;;13.40;99.90;;;;;;5005916;28;20505;-65
2021/08/31 01:39:05;;;;;;;51.50;30.58;;;13.40;99.90;;;;;;5013680;28;20025;-64
2021/08/31 01:41:31;;;;;;;60.95;31.13;;;13.30;99.90;;;;;;5009519;28;20030;-64
2021/08/31 01:43:57;;;;;;;66.78;32.25;;;13.30;99.90;;;;;;5010122;28;20197;-62
2021/08/31 01:46:22;;;;;;;63.17;33.20;;;13.30;99.90;;;;;;5002861;28;20561;-64
2021/08/31 01:48:48;;;;;;;65.28;33.47;;;13.20;99.90;;;;;;5007831;28;20034;-64
2021/08/31 01:51:14;;;;;;;59.25;33.80;;;13.30;99.90;;;;;;5009022;28;20022;-64
2021/08/31 01:53:40;;;;;;;70.57;36.65;;;13.30;99.90;;;;;;5009597;28;20034;-64
2021/08/31 01:56:05;;;;;;;68.57;35.92;;;13.30;99.90;;;;;;5007750;28;20041;-65
2021/08/31 01:58:31;;;;;;;61.20;35.03;;;13.30;99.90;;;;;;5006737;28;20551;-65
2021/08/31 02:00:57;;;;;;;69.43;35.78;;;13.30;99.90;;;;;;5011346;28;20037;-64
2021/08/31 02:03:22;;;;;;;62.83;34.20;;;13.30;99.90;;;;;;4971286;28;1059439;-64
2021/08/31 02:05:48;;;;;;;67.28;36.88;;;13.30;99.90;;;;;;5009948;28;20066;-63
2021/08/31 02:08:13;;;;;;;73.70;35.30;;;13.30;99.90;;;;;;5008684;28;20109;-66
2021/08/31 02:10:41;;;;;;;62.08;34.35;;;13.20;99.90;;;;;;5007584;28;20113;-64
2021/08/31 02:13:06;;;;;;;66.05;36.00;;;13.30;99.90;;;;;;5012392;28;20041;-63
2021/08/31 02:15:32;;;;;;;64.53;33.97;;;13.30;99.90;;;;;;5012353;28;20026;-64
2021/08/31 02:17:57;;;;;;;57.90;33.10;;;13.30;99.90;;;;;;5006550;28;20053;-64
2021/08/31 02:20:23;;;;;;;53.78;29.73;;;13.30;99.90;;;;;;5005830;28;20036;-61
2021/08/31 02:22:49;;;;;;;57.72;29.23;;;13.40;99.90;;;;;;5007797;28;20500;-64
2021/08/31 02:25:14;;;;;;;56.88;31.02;;;13.40;99.90;;;;;;5008438;28;20112;-64
2021/08/31 02:27:40;;;;;;;79.03;31.80;;;13.40;99.90;;;;;;5005993;28;20766;-63
2021/08/31 02:30:07;;;;;;;67.45;35.78;;;13.40;99.90;;;;;;5006743;28;20037;-64
2021/08/31 02:32:33;;;;;;;60.67;34.55;;;13.40;99.90;;;;;;5013697;28;20029;-65
2021/08/31 02:34:58;;;;;;;59.15;33.28;;;13.50;99.90;;;;;;5008525;28;20108;-63
2021/08/31 02:37:24;;;;;;;65.60;34.70;;;13.50;99.90;;;;;;5009906;28;20081;-65
2021/08/31 02:39:50;;;;;;;69.63;37.22;;;13.50;99.90;;;;;;5008210;28;20038;-64
2021/08/31 02:42:15;;;;;;;64.30;36.17;;;13.50;99.90;;;;;;5018377;28;20034;-64
2021/08/31 02:44:41;;;;;;;66.10;36.13;;;13.40;99.90;;;;;;5022486;28;20036;-64
2021/08/31 02:47:07;;;;;;;65.32;35.88;;;13.40;99.90;;;;;;4998805;28;20124;-64
2021/08/31 02:49:32;;;;;;;73.03;38.40;;;13.40;99.90;;;;;;4994401;28;20026;-64
2021/08/31 02:51:58;;;;;;;71.50;37.67;;;13.30;99.90;;;;;;5015294;28;20080;-64
2021/08/31 02:54:24;;;;;;;65.35;36.45;;;13.20;99.90;;;;;;5010909;28;20076;-63
2021/08/31 02:56:49;;;;;;;69.78;38.00;;;13.20;99.90;;;;;;5012406;28;20044;-64
2021/08/31 02:59:15;;;;;;;78.55;39.55;;;13.20;99.90;;;;;;5010940;28;20581;-61
2021/08/31 03:02:13;;;;;;;67.70;38.47;;;13.20;99.90;;;;;;5010831;28;20030;-62
2021/08/31 03:04:37;;;;;;;69.72;38.58;;;13.20;99.90;;;;;;5010147;28;20451;-64
2021/08/31 03:07:08;;;;;;;68.32;38.65;;;13.10;99.90;;;;;;5014445;28;20030;-63
2021/08/31 03:09:34;;;;;;;68.85;40.67;;;13.20;99.90;;;;;;5013707;28;20109;-63
2021/08/31 03:12:00;;;;;;;66.20;38.17;;;13.20;99.90;;;;;;5014953;28;20691;-64
2021/08/31 03:14:26;;;;;;;74.47;41.33;;;13.30;99.90;;;;;;5014017;28;20059;-64
2021/08/31 03:16:52;;;;;;;74.05;40.13;;;13.30;99.90;;;;;;5010158;28;20034;-64
2021/08/31 03:19:21;;;;;;;73.00;38.72;;;13.40;99.90;;;;;;5010806;28;20038;-62
2021/08/31 03:21:47;;;;;;;80.47;42.08;;;13.40;99.90;;;;;;5011335;28;20041;-64
2021/08/31 03:24:13;;;;;;;75.00;43.03;;;13.40;99.90;;;;;;5010959;28;20030;-65
2021/08/31 03:26:39;;;;;;;73.70;40.88;;;13.50;99.90;;;;;;5012214;28;20406;-65
2021/08/31 03:29:05;;;;;;;75.10;42.15;;;13.50;99.90;;;;;;5010208;28;20030;-64
2021/08/31 03:31:30;;;;;;;77.95;43.10;;;13.50;99.90;;;;;;5003401;28;20528;-64
2021/08/31 03:33:56;;;;;;;73.50;40.42;;;13.50;99.90;;;;;;5012383;28;20116;-63
2021/08/31 03:36:21;;;;;;;71.10;42.90;;;13.60;99.90;;;;;;5010502;28;20076;-65
2021/08/31 03:38:47;;;;;;;69.38;40.97;;;13.50;99.90;;;;;;5010036;28;20466;-62
2021/08/31 03:41:12;;;;;;;73.65;41.75;;;13.50;99.90;;;;;;5012356;28;20489;-61
2021/08/31 03:43:39;;;;;;;85.25;43.67;;;13.50;99.90;;;;;;5012752;28;20029;-62
2021/08/31 03:46:04;;;;;;;67.25;40.88;;;13.60;99.90;;;;;;5009583;28;20025;-63
2021/08/31 03:48:30;;;;;;;72.22;39.25;;;13.50;99.90;;;;;;5010548;28;20080;-65
2021/08/31 03:50:56;;;;;;;67.60;39.60;;;13.50;99.90;;;;;;5012962;28;20113;-64
2021/08/31 03:53:21;;;;;;;69.35;39.08;;;13.30;99.90;;;;;;5008949;28;20215;-64
2021/08/31 03:55:47;;;;;;;73.50;41.28;;;13.20;99.90;;;;;;5010623;28;20036;-65
2021/08/31 03:58:12;;;;;;;72.75;41.70;;;13.10;99.90;;;;;;5009584;28;20037;-64
2021/08/31 04:00:38;;;;;;;80.50;40.83;;;13.10;99.90;;;;;;5007179;28;20022;-64
2021/08/31 04:03:03;;;;;;;78.03;41.70;;;13.10;99.90;;;;;;5009165;28;20057;-64
2021/08/31 04:05:29;;;;;;;67.68;39.47;;;13.10;99.90;;;;;;5008715;28;20405;-64
2021/08/31 04:07:55;;;;;;;79.35;44.95;;;13.20;99.90;;;;;;5008109;28;20610;-65
2021/08/31 04:10:21;;;;;;;79.70;45.13;;;13.30;99.90;;;;;;5010450;28;20029;-63
2021/08/31 04:12:47;;;;;;;89.57;49.83;;;13.40;99.90;;;;;;5010691;28;20060;-61
2021/08/31 04:15:13;;;;;;;89.70;49.00;;;13.40;99.90;;;;;;5011815;28;20028;-64
2021/08/31 04:17:38;;;;;;;89.85;49.65;;;13.50;99.90;;;;;;5009614;28;20026;-64
2021/08/31 04:20:05;;;;;;;90.15;49.28;;;13.50;99.90;;;;;;5007102;28;20026;-64
2021/08/31 04:22:31;;;;;;;80.43;45.80;;;13.60;99.90;;;;;;5009541;28;20037;-63
2021/08/31 04:24:56;;;;;;;87.95;48.20;;;13.60;99.90;;;;;;5012795;28;20025;-62
2021/08/31 04:27:22;;;;;;;95.90;50.17;;;13.60;99.90;;;;;;5012591;28;20022;-65
2021/08/31 04:29:48;;;;;;;95.00;49.42;;;13.70;99.90;;;;;;5013574;28;20021;-65
2021/08/31 04:32:13;;;;;;;86.72;51.20;;;13.70;99.90;;;;;;5004807;28;20482;-61
2021/08/31 04:34:39;;;;;;;92.97;50.17;;;13.70;99.90;;;;;;5003689;28;20036;-64
2021/08/31 04:37:04;;;;;;;99.93;54.70;;;13.70;99.90;;;;;;5010039;28;20030;-64
2021/08/31 04:39:30;;;;;;;93.35;51.53;;;13.70;99.90;;;;;;5010821;28;20065;-63
2021/08/31 04:42:02;;;;;;;97.28;53.85;;;13.70;99.90;;;;;;5013839;28;20022;-63
2021/08/31 04:44:28;;;;;;;106.35;53.35;;;13.80;99.90;;;;;;5010780;28;20497;-65
2021/08/31 04:46:53;;;;;;;99.60;52.97;;;13.70;99.90;;;;;;5009116;28;20036;-63
2021/08/31 04:49:19;;;;;;;102.72;51.70;;;13.80;99.90;;;;;;5010887;28;20141;-63
2021/08/31 04:51:44;;;;;;;87.65;48.40;;;13.80;99.90;;;;;;5007436;28;20045;-64
2021/08/31 04:54:10;;;;;;;88.40;51.58;;;13.80;99.90;;;;;;5010839;28;20026;-63
2021/08/31 04:56:35;;;;;;;88.75;48.85;;;13.90;99.90;;;;;;4994173;28;20047;-65
2021/08/31 04:59:01;;;;;;;91.72;49.83;;;13.90;99.90;;;;;;5007056;28;21755;-63
2021/08/31 05:01:26;;;;;;;84.18;48.88;;;13.90;99.90;;;;;;5004212;28;20034;-63
2021/08/31 05:03:52;;;;;;;89.43;48.30;;;14.00;99.90;;;;;;5010446;28;20521;-63
2021/08/31 05:06:17;;;;;;;87.68;50.10;;;14.00;99.90;;;;;;5006851;28;20109;-64
2021/08/31 05:08:43;;;;;;;88.32;48.33;;;14.00;99.90;;;;;;5008652;28;20088;-63
2021/08/31 05:11:09;;;;;;;89.28;48.65;;;14.00;99.90;;;;;;5005287;28;20088;-65
2021/08/31 05:13:39;;;;;;;95.25;52.28;;;14.00;99.90;;;;;;5010496;28;20029;-64
2021/08/31 05:16:05;;;;;;;96.50;51.75;;;14.00;99.90;;;;;;5010480;28;20026;-64
2021/08/31 05:18:32;;;;;;;92.80;53.33;;;13.90;99.90;;;;;;5007345;28;20390;-63
2021/08/31 05:20:58;;;;;;;99.70;54.35;;;13.90;99.90;;;;;;5001199;28;20056;-63
2021/08/31 05:23:23;;;;;;;104.38;53.58;;;13.90;99.90;;;;;;5004861;28;20117;-62
2021/08/31 05:25:49;;;;;;;100.15;54.90;;;14.00;99.90;;;;;;5008952;28;20041;-62
2021/08/31 05:28:15;;;;;;;105.82;56.85;;;14.00;99.90;;;;;;5009227;28;20026;-62
2021/08/31 05:30:40;;;;;;;100.60;56.33;;;14.00;99.90;;;;;;5007892;28;20075;-61
2021/08/31 05:33:06;;;;;;;101.95;54.47;;;14.00;99.90;;;;;;5006962;28;20061;-62
2021/08/31 05:35:31;;;;;;;111.57;57.13;;;14.10;99.90;;;;;;5006143;28;20119;-63
2021/08/31 05:37:57;;;;;;;95.03;52.50;;;14.10;99.90;;;;;;5007667;28;20037;-63
2021/08/31 05:40:22;;;;;;;103.32;55.47;;;14.10;99.90;;;;;;5008122;28;20038;-62
2021/08/31 05:42:48;;;;;;;105.93;55.65;;;14.20;99.90;;;;;;5009560;28;20072;-60
2021/08/31 05:45:14;;;;;;;108.28;55.58;;;14.10;99.90;;;;;;5007863;28;20060;-62
2021/08/31 05:47:39;;;;;;;113.30;56.03;;;14.20;99.90;;;;;;5009073;28;20088;-63
2021/08/31 05:50:05;;;;;;;102.22;54.50;;;14.10;99.90;;;;;;5009252;28;20029;-60
2021/08/31 05:52:31;;;;;;;108.65;57.92;;;14.20;99.90;;;;;;5016260;28;20116;-63
2021/08/31 05:54:58;;;;;;;113.30;57.65;;;14.20;99.90;;;;;;5017288;28;20040;-63
2021/08/31 05:57:24;;;;;;;118.70;59.10;;;14.30;99.90;;;;;;5003695;28;21885;-63
2021/08/31 05:59:49;;;;;;;124.45;62.33;;;14.30;99.90;;;;;;5007643;28;20139;-62
2021/08/31 06:02:17;;;;;;;129.40;60.60;;;14.30;99.90;;;;;;5008182;28;20417;-63
2021/08/31 06:04:43;;;;;;;140.23;63.80;;;14.30;99.90;;;;;;5027420;23;20578;-61
2021/08/31 06:07:11;;;;;;;154.75;65.93;;;14.40;99.90;;;;;;5006203;28;20157;-62
2021/08/31 06:09:38;;;;;;;132.60;65.25;;;14.40;99.90;;;;;;5009755;28;20022;-62
2021/08/31 06:12:09;;;;;;;137.02;65.30;;;14.50;99.90;;;;;;4993830;28;20453;-62
2021/08/31 06:14:35;;;;;;;143.30;66.50;;;14.50;99.90;;;;;;5008869;28;20037;-61
2021/08/31 06:17:01;;;;;;;135.93;65.07;;;14.50;99.90;;;;;;5007048;28;20555;-62
2021/08/31 06:19:27;;;;;;;160.82;72.32;;;14.50;99.90;;;;;;5006447;28;20522;-61
2021/08/31 06:21:52;;;;;;;158.38;70.60;;;14.60;99.90;;;;;;5005367;28;20031;-62
2021/08/31 06:24:18;;;;;;;171.68;74.45;;;14.50;99.90;;;;;;5006158;28;20033;-62
2021/08/31 06:26:44;;;;;;;176.00;73.93;;;14.60;99.90;;;;;;5006262;28;20045;-62
2021/08/31 06:29:09;;;;;;;183.98;76.72;;;14.50;99.90;;;;;;5007598;28;20093;-62
2021/08/31 06:31:35;;;;;;;184.45;75.95;;;14.50;99.90;;;;;;5005101;28;20045;-62
2021/08/31 06:34:00;;;;;;;188.10;78.95;;;14.50;99.90;;;;;;5002034;28;20041;-62
2021/08/31 06:36:26;;;;;;;189.80;78.78;;;14.60;99.90;;;;;;5007447;28;20105;-62
2021/08/31 06:38:52;;;;;;;211.88;81.47;;;14.50;99.90;;;;;;4989192;28;20065;-62
2021/08/31 06:41:17;;;;;;;207.48;82.13;;;14.60;99.90;;;;;;5003110;28;20034;-63
2021/08/31 06:43:45;;;;;;;209.63;81.30;;;14.60;99.90;;;;;;4988547;28;20481;-62
2021/08/31 06:46:10;;;;;;;225.48;81.13;;;14.60;99.90;;;;;;5009446;28;20014;-62
2021/08/31 06:48:36;;;;;;;218.00;84.97;;;14.70;99.90;;;;;;5006835;28;20389;-62
2021/08/31 06:51:02;;;;;;;231.13;85.47;;;14.70;99.90;;;;;;5000197;28;20033;-63
2021/08/31 06:53:27;;;;;;;229.10;81.90;;;14.70;99.90;;;;;;5003535;28;20026;-62
2021/08/31 06:55:53;;;;;;;238.15;83.65;;;14.70;99.90;;;;;;4999082;28;20026;-62
2021/08/31 06:58:18;;;;;;;243.32;87.40;;;14.80;99.90;;;;;;5003137;28;20568;-63
2021/08/31 07:00:44;;;;;;;238.15;85.40;;;14.80;99.90;;;;;;5002633;28;20036;-63
2021/08/31 07:03:10;;;;;;;228.70;83.55;;;14.80;99.90;;;;;;5000268;28;20105;-62
2021/08/31 07:05:35;;;;;;;252.40;87.65;;;14.90;99.90;;;;;;5001800;28;20034;-62
2021/08/31 07:08:01;;;;;;;249.63;88.20;;;15.00;99.90;;;;;;5000283;28;20030;-62
2021/08/31 07:10:27;;;;;;;254.05;88.93;;;15.00;99.90;;;;;;5000068;28;20030;-62
2021/08/31 07:12:52;;;;;;;240.60;84.75;;;15.10;99.90;;;;;;5004535;28;20405;-62
2021/08/31 07:15:18;;;;;;;243.13;85.00;;;15.10;99.90;;;;;;5004408;28;20101;-62
2021/08/31 07:17:44;;;;;;;258.85;90.10;;;15.20;99.90;;;;;;4989181;28;20066;-62
2021/08/31 07:20:10;;;;;;;240.00;85.18;;;15.10;99.90;;;;;;5005684;28;20026;-60
2021/08/31 07:22:36;;;;;;;261.05;87.70;;;15.10;99.90;;;;;;5006874;28;20029;-63
2021/08/31 07:25:01;;;;;;;246.85;88.20;;;15.10;99.90;;;;;;5004219;28;20026;-62
2021/08/31 07:27:27;;;;;;;264.80;89.88;;;15.20;99.90;;;;;;5005923;28;20022;-62
2021/08/31 07:29:53;;;;;;;257.00;87.45;;;15.20;99.90;;;;;;5001489;28;20551;-62
2021/08/31 07:32:18;;;;;;;284.88;86.97;;;15.20;99.90;;;;;;5001655;28;20026;-63
2021/08/31 07:34:44;;;;;;;255.07;86.70;;;15.30;99.90;;;;;;4992484;28;20072;-61
2021/08/31 07:37:09;;;;;;;265.83;86.72;;;15.30;99.90;;;;;;5002192;28;20087;-61
2021/08/31 07:39:35;;;;;;;265.55;86.82;;;15.30;99.90;;;;;;5004249;28;20036;-63
2021/08/31 07:42:01;;;;;;;257.73;90.25;;;15.30;99.90;;;;;;5000637;28;20040;-62
2021/08/31 07:44:27;;;;;;;250.57;86.60;;;15.40;99.90;;;;;;5004554;28;20092;-60
2021/08/31 07:46:52;;;;;;;258.67;87.57;;;15.40;99.90;;;;;;5003788;28;20411;-62
2021/08/31 07:49:19;;;;;;;259.95;86.95;;;15.30;99.90;;;;;;4991028;28;20486;-61
2021/08/31 07:51:45;;;;;;;250.27;84.45;;;15.40;99.90;;;;;;5004610;28;20496;-62
2021/08/31 07:54:11;;;;;;;241.93;83.75;;;15.30;99.90;;;;;;4988674;28;20031;-61
2021/08/31 07:56:37;;;;;;;238.15;82.65;;;15.30;99.90;;;;;;5002133;28;20029;-62
2021/08/31 07:59:03;;;;;;;253.05;86.78;;;15.40;99.90;;;;;;5001424;28;20022;-62
2021/08/31 08:01:30;;;;;;;242.77;82.43;;;15.50;99.90;;;;;;5006430;28;20033;-62
2021/08/31 08:03:56;;;;;;;239.70;83.93;;;15.50;99.90;;;;;;5007135;28;20014;-60
2021/08/31 08:06:22;;;;;;;235.27;81.95;;;15.60;99.90;;;;;;5003761;28;20049;-63
2021/08/31 08:08:47;;;;;;;226.57;80.50;;;15.50;99.90;;;;;;5008248;28;20026;-61
2021/08/31 08:11:13;;;;;;;227.15;83.85;;;15.60;99.90;;;;;;4995562;28;20486;-62
2021/08/31 08:13:39;;;;;;;221.05;80.57;;;15.60;99.90;;;;;;4998995;28;20505;-63
2021/08/31 08:16:04;;;;;;;209.25;79.20;;;15.60;99.90;;;;;;4992411;28;20081;-61
2021/08/31 08:18:30;;;;;;;220.77;81.45;;;15.60;99.90;;;;;;5003721;28;20033;-61
2021/08/31 08:20:56;;;;;;;215.32;79.25;;;15.70;99.90;;;;;;4999418;28;20034;-62
2021/08/31 08:23:22;;;;;;;223.98;82.28;;;15.80;99.90;;;;;;5003292;28;20116;-61
2021/08/31 08:25:47;;;;;;;209.98;80.15;;;15.80;99.90;;;;;;5003768;28;20433;-61
2021/08/31 08:28:13;;;;;;;201.15;79.28;;;15.80;99.90;;;;;;5003875;28;20490;-61
2021/08/31 08:30:39;;;;;;;203.15;79.72;;;15.90;99.90;;;;;;5005376;28;20072;-61
2021/08/31 08:33:05;;;;;;;207.48;82.22;;;15.90;99.90;;;;;;4998379;28;20450;-62
2021/08/31 08:35:30;;;;;;;204.77;83.32;;;16.00;99.90;;;;;;5002958;28;20033;-62
2021/08/31 08:37:57;;;;;;;210.07;82.15;;;15.90;99.90;;;;;;5003127;28;20492;-62
2021/08/31 08:40:24;;;;;;;192.25;80.43;;;16.00;99.90;;;;;;5000997;28;20034;-61
2021/08/31 08:42:52;;;;;;;194.60;79.53;;;16.10;99.90;;;;;;5006743;28;20033;-61
2021/08/31 08:45:18;;;;;;;193.57;80.38;;;16.10;99.90;;;;;;4992299;28;20478;-62
2021/08/31 08:47:44;;;;;;;191.80;80.00;;;16.00;99.90;;;;;;5004088;28;20037;-62
2021/08/31 08:50:10;;;;;;;184.15;79.90;;;16.00;99.90;;;;;;4999088;28;20392;-62
2021/08/31 08:52:35;;;;;;;199.65;84.47;;;16.00;99.90;;;;;;4999729;28;20541;-62
2021/08/31 08:55:01;;;;;;;191.45;82.70;;;16.00;99.90;;;;;;5002803;28;20114;-61
2021/08/31 08:57:29;;;;;;;183.32;77.68;;;16.00;99.90;;;;;;5001495;28;20478;-61
2021/08/31 08:59:55;;;;;;;179.38;77.82;;;16.00;99.90;;;;;;5004248;28;20026;-61
2021/08/31 09:02:37;;;;;;;187.15;81.07;;;16.00;99.90;;;;;;5004165;28;20401;-61
2021/08/31 09:05:05;;;;;;;173.73;76.63;;;16.00;99.90;;;;;;5005191;28;20034;-62
2021/08/31 09:07:36;;;;;;;167.82;76.18;;;16.00;99.90;;;;;;5003673;28;20038;-61
2021/08/31 09:10:15;;;;;;;179.07;78.25;;;15.90;99.90;;;;;;4998892;28;20037;-59
2021/08/31 09:12:42;;;;;;;169.45;76.93;;;15.90;99.90;;;;;;5005151;28;20037;-60
2021/08/31 09:15:21;;;;;;;168.18;76.65;;;15.90;99.90;;;;;;4997016;28;20061;-60
2021/08/31 09:18:18;;;;;;;165.20;77.05;;;15.90;99.90;;;;;;5001577;28;20032;-61
2021/08/31 09:20:57;;;;;;;162.27;78.15;;;16.00;99.90;;;;;;5006529;28;20512;-61
2021/08/31 09:23:34;;;;;;;154.00;74.80;;;16.00;99.90;;;;;;5000641;28;20148;-59
2021/08/31 09:26:07;;;;;;;145.90;73.47;;;16.00;99.90;;;;;;4997722;28;20044;-60
2021/08/31 09:28:41;;;;;;;151.27;71.80;;;16.00;99.90;;;;;;4999704;28;20097;-60
2021/08/31 09:31:27;;;;;;;136.95;69.82;;;16.00;99.90;;;;;;5000479;28;20022;-59
2021/08/31 09:33:54;;;;;;;138.35;69.45;;;16.00;99.90;;;;;;4991746;28;20538;-61
2021/08/31 09:36:23;;;;;;;147.90;73.50;;;15.90;99.90;;;;;;4997620;28;20478;-58
2021/08/31 09:39:01;;;;;;;129.55;66.00;;;15.90;99.90;;;;;;5002907;28;20041;-60
2021/08/31 09:41:41;;;;;;;131.73;68.25;;;15.90;99.90;;;;;;5000207;28;20022;-59
2021/08/31 09:44:12;;;;;;;123.63;63.42;;;15.80;99.90;;;;;;4996885;28;20042;-60
2021/08/31 09:47:04;;;;;;;127.47;61.95;;;15.80;99.90;;;;;;4992514;28;20034;-58
2021/08/31 09:49:32;;;;;;;116.45;58.80;;;15.80;99.90;;;;;;4999159;28;20208;-58
2021/08/31 09:52:00;;;;;;;131.60;64.50;;;15.80;99.90;;;;;;4993866;28;20038;-58
2021/08/31 09:54:25;;;;;;;135.52;67.75;;;15.80;99.90;;;;;;5002073;28;20025;-60
2021/08/31 09:56:51;;;;;;;138.88;68.80;;;15.80;99.90;;;;;;5006528;28;20041;-58
2021/08/31 09:59:17;;;;;;;122.82;65.38;;;15.80;99.90;;;;;;4982722;28;20022;-60
2021/08/31 10:01:43;;;;;;;137.93;68.55;;;15.70;99.90;;;;;;5000736;28;20029;-60
2021/08/31 10:04:09;;;;;;;144.00;70.03;;;15.70;99.90;;;;;;5002606;28;20098;-60
2021/08/31 10:06:35;;;;;;;136.90;66.07;;;15.70;99.90;;;;;;5003815;28;20437;-60
2021/08/31 10:09:01;;;;;;;125.68;64.82;;;15.70;99.90;;;;;;5004761;28;20044;-60
2021/08/31 10:11:27;;;;;;;129.88;66.22;;;15.80;99.90;;;;;;4991742;28;20022;-61
2021/08/31 10:13:54;;;;;;;121.85;62.88;;;15.80;99.90;;;;;;5003558;28;20117;-60
2021/08/31 10:16:22;;;;;;;125.47;63.45;;;15.80;99.90;;;;;;4991560;28;20022;-60
2021/08/31 10:18:48;;;;;;;125.60;63.10;;;15.80;99.90;;;;;;4990888;28;20023;-60
2021/08/31 10:21:14;;;;;;;124.30;61.63;;;15.90;99.90;;;;;;4990308;28;20497;-60
2021/08/31 10:23:45;;;;;;;121.03;62.10;;;15.90;99.90;;;;;;4990554;28;20050;-59
2021/08/31 10:26:32;;;;;;;113.35;56.97;;;15.90;99.90;;;;;;4994969;28;20022;-60
2021/08/31 10:29:16;;;;;;;111.65;59.95;;;16.00;99.90;;;;;;4987197;28;20070;-59
2021/08/31 10:31:49;;;;;;;112.27;59.43;;;16.00;99.90;;;;;;5006712;28;20033;-60
2021/08/31 10:34:30;;;;;;;117.93;61.47;;;16.00;99.90;;;;;;5002899;28;20025;-61
2021/08/31 10:37:19;;;;;;;108.20;55.00;;;16.00;99.90;;;;;;5002303;28;20038;-61
2021/08/31 10:39:53;;;;;;;109.68;58.45;;;16.00;99.90;;;;;;4982542;28;20073;-60
2021/08/31 10:42:24;;;;;;;106.68;55.72;;;16.10;99.90;;;;;;4998753;28;20022;-62
2021/08/31 10:44:51;;;;;;;93.03;51.70;;;16.10;99.90;;;;;;5001643;28;20102;-59
2021/08/31 10:47:26;;;;;;;118.40;57.08;;;16.10;99.90;;;;;;4998303;28;20026;-60
2021/08/31 10:49:57;;;;;;;103.07;54.88;;;16.10;99.90;;;;;;5006647;28;20050;-60
2021/08/31 10:52:38;;;;;;;104.70;54.90;;;16.10;99.90;;;;;;5004550;28;20034;-59
2021/08/31 10:55:06;;;;;;;100.72;51.10;;;16.20;99.90;;;;;;5003857;28;20478;-61
2021/08/31 10:57:37;;;;;;;92.72;48.40;;;16.30;99.90;;;;;;5000551;28;20038;-61
2021/08/31 11:00:24;;;;;;;80.85;45.05;;;16.50;99.90;;;;;;5004360;28;20025;-61
2021/08/31 11:03:00;;;;;;;82.10;45.50;;;16.70;99.90;;;;;;5006851;28;20030;-61
2021/08/31 11:05:31;;;;;;;70.22;38.53;;;16.80;99.90;;;;;;4999419;28;20053;-61
2021/08/31 11:08:00;;;;;;;62.33;34.75;;;17.20;99.90;;;;;;5005102;28;20079;-59
2021/08/31 11:10:31;;;;;;;59.83;33.25;;;17.50;99.90;;;;;;5001989;28;20105;-61
2021/08/31 11:13:08;;;;;;;49.00;29.20;;;17.70;99.90;;;;;;5001128;28;20037;-61
2021/08/31 11:15:33;;;;;;;48.47;29.13;;;17.80;99.90;;;;;;5001793;28;20030;-61
2021/08/31 11:17:59;;;;;;;42.75;26.45;;;18.10;99.90;;;;;;5004581;28;20027;-60
2021/08/31 11:20:29;;;;;;;45.33;28.25;;;18.30;99.90;;;;;;4999212;28;20026;-60
2021/08/31 11:23:16;;;;;;;54.88;29.13;;;18.30;99.90;;;;;;4997387;28;20034;-60
2021/08/31 11:25:45;;;;;;;40.70;26.60;;;18.50;99.90;;;;;;4978226;28;20026;-60
2021/08/31 11:28:14;;;;;;;47.08;27.17;;;18.50;99.90;;;;;;4996387;28;20026;-60
2021/08/31 11:31:15;;;;;;;41.85;25.25;;;18.50;99.90;;;;;;5001356;28;20046;-61
2021/08/31 11:33:43;;;;;;;38.13;23.55;;;18.80;99.90;;;;;;4996061;28;20026;-60
2021/08/31 11:36:10;;;;;;;35.92;22.83;;;19.30;99.90;;;;;;4998428;28;20037;-60
2021/08/31 11:38:41;;;;;;;39.33;22.90;;;19.40;99.90;;;;;;4999149;28;20429;-59
2021/08/31 11:41:27;;;;;;;37.28;23.48;;;19.70;99.90;;;;;;4999993;28;20034;-60
2021/08/31 11:43:57;;;;;;;42.85;27.55;;;19.60;99.90;;;;;;4992980;28;20027;-60
2021/08/31 11:46:25;;;;;;;46.13;29.05;;;19.30;99.90;;;;;;5007152;28;20108;-60
2021/08/31 11:49:17;;;;;;;40.67;25.77;;;19.20;99.90;;;;;;5006282;28;20033;-60
2021/08/31 11:51:54;;;;;;;37.63;24.08;;;19.50;99.90;;;;;;5005487;28;20057;-60
2021/08/31 11:54:21;;;;;;;36.42;22.65;;;19.90;99.90;;;;;;5005795;28;20030;-62
2021/08/31 11:56:58;;;;;;;34.13;23.77;;;20.00;99.90;;;;;;5008009;28;20030;-62
2021/08/31 11:59:37;;;;;;;33.72;23.17;;;20.20;99.90;;;;;;5002303;28;20060;-62
2021/08/31 12:02:38;;;;;;;36.60;24.40;;;20.40;99.90;;;;;;4995547;28;20030;-62
2021/08/31 12:05:06;;;;;;;29.67;21.83;;;20.40;99.90;;;;;;5008175;23;20084;-58
2021/08/31 12:07:49;;;;;;;35.30;21.83;;;20.60;99.90;;;;;;5030551;28;20550;-55
2021/08/31 12:10:25;;;;;;;32.08;20.60;;;21.00;99.90;;;;;;5028995;28;20493;-59
2021/08/31 12:12:51;;;;;;;33.58;19.52;;;21.30;99.90;;;;;;5030860;28;20049;-56
2021/08/31 12:15:26;;;;;;;29.48;19.90;;;21.10;99.90;;;;;;5025402;28;20374;-58
2021/08/31 12:18:05;;;;;;;26.17;20.05;;;21.00;99.90;;;;;;5009796;28;20030;-58
2021/08/31 12:20:32;;;;;;;31.15;19.35;;;20.80;99.90;;;;;;5005782;28;20057;-56
2021/08/31 12:23:03;;;;;;;31.60;20.02;;;20.60;99.90;;;;;;5005396;28;20038;-55
2021/08/31 12:25:46;;;;;;;24.13;15.93;;;20.30;99.90;;;;;;5001913;28;20022;-58
2021/08/31 12:28:12;;;;;;;23.15;16.40;;;20.70;99.90;;;;;;5003305;28;20037;-59